sensor_id;sensor_type;location;lat;lon;timestamp;temperature;humidity
5457;DHT22;2751;49.802;9.944;2023-02-15T00:01:44;3.30;1.00
5457;DHT22;2751;49.802;9.944;2023-02-15T00:04:13;3.30;1.00
5457;DHT22;2751;49.802;9.944;2023-02-15T00:06:40;3.20;1.00
5457;DHT22;2751;49.802;9.944;2023-02-15T00:09:08;3.10;1.00
5457;DHT22;2751;49.802;9.944;2023-02-15T00:11:35;3.20;99.90
5457;DHT22;2751;49.802;9.944;2023-02-15T00:14:12;3.20;99.90
5457;DHT22;2751;49.802;9.944;2023-02-15T00:16:41;3.20;99.90
5457;DHT22;2751;49.802;9.944;2023-02-15T00:19:10;3.40;1.00
5457;DHT22;2751;49.802;9.944;2023-02-15T00:21:38;3.20;1.00
5457;DHT22;2751;49.802;9.944;2023-02-15T00:24:07;3.30;1.00
5457;DHT22;2751;49.802;9.944;2023-02-15T00:26:34;3.30;1.00
5457;DHT22;2751;49.802;9.944;2023-02-15T00:29:02;3.20;99.90
5457;DHT22;2751;49.802;9.944;2023-02-15T00:31:32;3.10;1.00
5457;DHT22;2751;49.802;9.944;2023-02-15T00:34:03;3.50;1.00
5457;DHT22;2751;49.802;9.944;2023-02-15T00:36:30;3.10;1.00
5457;DHT22;2751;49.802;9.944;2023-02-15T00:38:56;3.10;1.00
5457;DHT22;2751;49.802;9.944;2023-02-15T00:41:24;3.00;1.00
5457;DHT22;2751;49.802;9.944;2023-02-15T00:43:51;2.90;1.00
5457;DHT22;2751;49.802;9.944;2023-02-15T00:46:17;3.00;28.20
5457;DHT22;2751;49.802;9.944;2023-02-15T00:48:45;2.90;1.00
5457;DHT22;2751;49.802;9.944;2023-02-15T00:51:13;2.90;1.00
5457;DHT22;2751;49.802;9.944;2023-02-15T00:53:40;2.90;1.00
5457;DHT22;2751;49.802;9.944;2023-02-15T00:56:07;2.90;1.00
5457;DHT22;2751;49.802;9.944;2023-02-15T00:58:33;2.80;99.90
5457;DHT22;2751;49.802;9.944;2023-02-15T01:01:03;3.20;99.90
5457;DHT22;2751;49.802;9.944;2023-02-15T01:03:31;3.00;33.00
5457;DHT22;2751;49.802;9.944;2023-02-15T01:05:58;3.20;99.90
5457;DHT22;2751;49.802;9.944;2023-02-15T01:08:27;2.90;1.00
5457;DHT22;2751;49.802;9.944;2023-02-15T01:10:54;2.80;99.90
5457;DHT22;2751;49.802;9.944;2023-02-15T01:13:21;2.80;99.90
5457;DHT22;2751;49.802;9.944;2023-02-15T01:15:52;2.80;99.90
5457;DHT22;2751;49.802;9.944;2023-02-15T01:18:19;2.80;99.90
5457;DHT22;2751;49.802;9.944;2023-02-15T01:20:46;2.80;99.90
5457;DHT22;2751;49.802;9.944;2023-02-15T01:23:13;2.80;38.70
5457;DHT22;2751;49.802;9.944;2023-02-15T01:25:41;2.70;58.40
5457;DHT22;2751;49.802;9.944;2023-02-15T01:28:08;2.60;99.90
5457;DHT22;2751;49.802;9.944;2023-02-15T01:30:35;2.60;99.90
5457;DHT22;2751;49.802;9.944;2023-02-15T01:33:02;2.90;1.00
5457;DHT22;2751;49.802;9.944;2023-02-15T01:35:29;2.70;1.00
5457;DHT22;2751;49.802;9.944;2023-02-15T01:37:56;2.90;1.00
5457;DHT22;2751;49.802;9.944;2023-02-15T01:40:24;2.70;1.00
5457;DHT22;2751;49.802;9.944;2023-02-15T01:42:53;2.60;99.90
5457;DHT22;2751;49.802;9.944;2023-02-15T01:45:23;2.90;1.00
5457;DHT22;2751;49.802;9.944;2023-02-15T01:47:57;2.50;1.00
5457;DHT22;2751;49.802;9.944;2023-02-15T01:50:28;2.50;1.00
5457;DHT22;2751;49.802;9.944;2023-02-15T01:53:00;2.50;1.00
5457;DHT22;2751;49.802;9.944;2023-02-15T01:55:31;2.50;1.00
5457;DHT22;2751;49.802;9.944;2023-02-15T01:58:01;2.50;1.00
5457;DHT22;2751;49.802;9.944;2023-02-15T02:00:28;2.40;1.00
5457;DHT22;2751;49.802;9.944;2023-02-15T02:02:56;2.40;1.00
5457;DHT22;2751;49.802;9.944;2023-02-15T02:05:24;2.40;7.80
5457;DHT22;2751;49.802;9.944;2023-02-15T02:07:52;2.40;21.10
5457;DHT22;2751;49.802;9.944;2023-02-15T02:10:24;2.40;1.00
5457;DHT22;2751;49.802;9.944;2023-02-15T02:12:53;2.40;1.00
5457;DHT22;2751;49.802;9.944;2023-02-15T02:15:25;2.50;1.00
5457;DHT22;2751;49.802;9.944;2023-02-15T02:18:02;2.50;1.00
5457;DHT22;2751;49.802;9.944;2023-02-15T02:20:55;2.60;99.90
5457;DHT22;2751;49.802;9.944;2023-02-15T02:29:53;2.20;1.00
5457;DHT22;2751;49.802;9.944;2023-02-15T02:35:44;2.30;1.00
5457;DHT22;2751;49.802;9.944;2023-02-15T02:38:19;2.40;1.00
5457;DHT22;2751;49.802;9.944;2023-02-15T02:40:55;2.40;1.00
5457;DHT22;2751;49.802;9.944;2023-02-15T02:43:30;2.50;1.00
5457;DHT22;2751;49.802;9.944;2023-02-15T02:46:02;2.70;99.90
5457;DHT22;2751;49.802;9.944;2023-02-15T02:48:33;2.80;99.90
5457;DHT22;2751;49.802;9.944;2023-02-15T02:51:02;2.40;99.90
5457;DHT22;2751;49.802;9.944;2023-02-15T02:53:30;2.40;99.90
5457;DHT22;2751;49.802;9.944;2023-02-15T02:56:01;2.30;1.00
5457;DHT22;2751;49.802;9.944;2023-02-15T02:58:33;2.30;99.90
5457;DHT22;2751;49.802;9.944;2023-02-15T03:01:06;2.20;19.80
5457;DHT22;2751;49.802;9.944;2023-02-15T03:03:38;2.20;99.90
5457;DHT22;2751;49.802;9.944;2023-02-15T03:06:10;2.30;99.90
5457;DHT22;2751;49.802;9.944;2023-02-15T03:08:42;2.20;99.90
5457;DHT22;2751;49.802;9.944;2023-02-15T03:11:11;2.10;99.90
5457;DHT22;2751;49.802;9.944;2023-02-15T03:13:39;2.10;99.90
5457;DHT22;2751;49.802;9.944;2023-02-15T03:16:06;2.10;99.90
5457;DHT22;2751;49.802;9.944;2023-02-15T03:18:57;2.00;1.00
5457;DHT22;2751;49.802;9.944;2023-02-15T03:21:33;2.10;1.00
5457;DHT22;2751;49.802;9.944;2023-02-15T03:24:04;2.00;1.00
5457;DHT22;2751;49.802;9.944;2023-02-15T03:26:34;2.10;15.00
5457;DHT22;2751;49.802;9.944;2023-02-15T03:29:04;2.10;1.00
5457;DHT22;2751;49.802;9.944;2023-02-15T03:31:37;2.00;1.00
5457;DHT22;2751;49.802;9.944;2023-02-15T03:34:06;2.00;1.00
5457;DHT22;2751;49.802;9.944;2023-02-15T03:36:42;2.00;1.00
5457;DHT22;2751;49.802;9.944;2023-02-15T03:39:18;2.00;99.90
5457;DHT22;2751;49.802;9.944;2023-02-15T03:41:48;2.00;99.90
5457;DHT22;2751;49.802;9.944;2023-02-15T03:44:20;1.90;99.90
5457;DHT22;2751;49.802;9.944;2023-02-15T03:46:54;1.80;99.90
5457;DHT22;2751;49.802;9.944;2023-02-15T03:49:26;1.80;99.90
5457;DHT22;2751;49.802;9.944;2023-02-15T03:51:57;2.30;1.00
5457;DHT22;2751;49.802;9.944;2023-02-15T03:54:26;1.90;1.00
5457;DHT22;2751;49.802;9.944;2023-02-15T03:57:12;1.90;99.90
5457;DHT22;2751;49.802;9.944;2023-02-15T03:59:57;2.40;99.90
5457;DHT22;2751;49.802;9.944;2023-02-15T04:02:52;2.00;1.00
5457;DHT22;2751;49.802;9.944;2023-02-15T04:05:21;2.30;99.90
5457;DHT22;2751;49.802;9.944;2023-02-15T04:07:49;1.90;1.00
5457;DHT22;2751;49.802;9.944;2023-02-15T04:10:16;1.90;1.00
5457;DHT22;2751;49.802;9.944;2023-02-15T04:13:00;1.70;99.90
5457;DHT22;2751;49.802;9.944;2023-02-15T04:15:27;2.00;99.90
5457;DHT22;2751;49.802;9.944;2023-02-15T04:18:11;1.90;1.00
5457;DHT22;2751;49.802;9.944;2023-02-15T04:20:38;1.90;1.00
5457;DHT22;2751;49.802;9.944;2023-02-15T04:23:24;2.00;99.90
5457;DHT22;2751;49.802;9.944;2023-02-15T04:26:08;2.20;99.90
5457;DHT22;2751;49.802;9.944;2023-02-15T04:28:35;2.40;99.90
5457;DHT22;2751;49.802;9.944;2023-02-15T04:31:02;1.90;99.90
5457;DHT22;2751;49.802;9.944;2023-02-15T04:33:29;1.90;99.90
5457;DHT22;2751;49.802;9.944;2023-02-15T04:35:56;1.90;1.00
5457;DHT22;2751;49.802;9.944;2023-02-15T04:38:24;1.70;1.00
5457;DHT22;2751;49.802;9.944;2023-02-15T04:40:51;1.70;1.00
5457;DHT22;2751;49.802;9.944;2023-02-15T04:43:18;2.20;40.80
5457;DHT22;2751;49.802;9.944;2023-02-15T04:45:48;1.70;1.00
5457;DHT22;2751;49.802;9.944;2023-02-15T04:48:15;1.50;61.10
5457;DHT22;2751;49.802;9.944;2023-02-15T04:50:42;1.50;99.90
5457;DHT22;2751;49.802;9.944;2023-02-15T04:53:10;1.90;99.90
5457;DHT22;2751;49.802;9.944;2023-02-15T04:55:38;1.50;99.90
5457;DHT22;2751;49.802;9.944;2023-02-15T04:58:05;1.40;99.90
5457;DHT22;2751;49.802;9.944;2023-02-15T05:00:32;1.30;1.00
5457;DHT22;2751;49.802;9.944;2023-02-15T05:02:59;1.30;1.00
5457;DHT22;2751;49.802;9.944;2023-02-15T05:05:25;1.30;1.00
5457;DHT22;2751;49.802;9.944;2023-02-15T05:07:52;1.20;1.00
5457;DHT22;2751;49.802;9.944;2023-02-15T05:10:19;1.10;1.00
5457;DHT22;2751;49.802;9.944;2023-02-15T05:12:47;1.30;23.90
5457;DHT22;2751;49.802;9.944;2023-02-15T05:15:14;1.20;99.90
5457;DHT22;2751;49.802;9.944;2023-02-15T05:17:41;1.50;99.90
5457;DHT22;2751;49.802;9.944;2023-02-15T05:20:09;1.30;1.00
5457;DHT22;2751;49.802;9.944;2023-02-15T05:22:36;1.40;1.00
5457;DHT22;2751;49.802;9.944;2023-02-15T05:25:03;1.30;99.90
5457;DHT22;2751;49.802;9.944;2023-02-15T05:27:49;1.20;99.90
5457;DHT22;2751;49.802;9.944;2023-02-15T05:30:33;1.30;99.90
5457;DHT22;2751;49.802;9.944;2023-02-15T05:33:00;1.30;99.90
5457;DHT22;2751;49.802;9.944;2023-02-15T05:35:27;1.20;97.40
5457;DHT22;2751;49.802;9.944;2023-02-15T05:37:54;1.10;99.90
5457;DHT22;2751;49.802;9.944;2023-02-15T05:40:21;1.00;1.00
5457;DHT22;2751;49.802;9.944;2023-02-15T05:42:49;1.10;1.00
5457;DHT22;2751;49.802;9.944;2023-02-15T05:45:16;1.50;1.00
5457;DHT22;2751;49.802;9.944;2023-02-15T05:47:43;1.20;1.00
5457;DHT22;2751;49.802;9.944;2023-02-15T05:50:10;1.20;99.90
5457;DHT22;2751;49.802;9.944;2023-02-15T05:52:37;1.60;99.90
5457;DHT22;2751;49.802;9.944;2023-02-15T05:55:05;1.10;99.90
5457;DHT22;2751;49.802;9.944;2023-02-15T05:57:34;1.00;99.90
5457;DHT22;2751;49.802;9.944;2023-02-15T06:00:03;1.20;99.90
5457;DHT22;2751;49.802;9.944;2023-02-15T06:02:33;1.00;1.00
5457;DHT22;2751;49.802;9.944;2023-02-15T06:05:00;0.90;99.90
5457;DHT22;2751;49.802;9.944;2023-02-15T06:07:27;1.10;1.00
5457;DHT22;2751;49.802;9.944;2023-02-15T06:09:54;0.90;8.30
5457;DHT22;2751;49.802;9.944;2023-02-15T06:12:21;1.00;1.00
5457;DHT22;2751;49.802;9.944;2023-02-15T06:14:48;1.50;1.00
5457;DHT22;2751;49.802;9.944;2023-02-15T06:17:16;0.90;99.90
5457;DHT22;2751;49.802;9.944;2023-02-15T06:19:43;0.90;1.00
5457;DHT22;2751;49.802;9.944;2023-02-15T06:22:10;0.90;1.00
5457;DHT22;2751;49.802;9.944;2023-02-15T06:24:39;0.80;1.00
5457;DHT22;2751;49.802;9.944;2023-02-15T06:27:08;0.80;1.00
5457;DHT22;2751;49.802;9.944;2023-02-15T06:29:35;0.80;1.00
5457;DHT22;2751;49.802;9.944;2023-02-15T06:32:01;0.80;1.00
5457;DHT22;2751;49.802;9.944;2023-02-15T06:34:30;0.90;1.00
5457;DHT22;2751;49.802;9.944;2023-02-15T06:36:57;0.80;99.90
5457;DHT22;2751;49.802;9.944;2023-02-15T06:39:24;1.20;99.90
5457;DHT22;2751;49.802;9.944;2023-02-15T06:41:51;0.90;99.90
5457;DHT22;2751;49.802;9.944;2023-02-15T06:44:17;0.80;93.60
5457;DHT22;2751;49.802;9.944;2023-02-15T06:46:44;0.70;99.90
5457;DHT22;2751;49.802;9.944;2023-02-15T06:49:11;0.60;1.00
5457;DHT22;2751;49.802;9.944;2023-02-15T06:51:39;0.70;1.00
5457;DHT22;2751;49.802;9.944;2023-02-15T06:54:06;0.80;1.00
5457;DHT22;2751;49.802;9.944;2023-02-15T06:56:33;0.90;1.00
5457;DHT22;2751;49.802;9.944;2023-02-15T06:59:00;0.90;1.00
5457;DHT22;2751;49.802;9.944;2023-02-15T07:01:27;0.90;99.90
5457;DHT22;2751;49.802;9.944;2023-02-15T07:03:54;0.90;1.00
5457;DHT22;2751;49.802;9.944;2023-02-15T07:06:21;1.00;1.00
5457;DHT22;2751;49.802;9.944;2023-02-15T07:08:49;1.50;99.90
5457;DHT22;2751;49.802;9.944;2023-02-15T07:11:16;1.00;99.90
5457;DHT22;2751;49.802;9.944;2023-02-15T07:14:00;1.10;99.90
5457;DHT22;2751;49.802;9.944;2023-02-15T07:16:27;1.10;1.00
5457;DHT22;2751;49.802;9.944;2023-02-15T07:18:54;1.40;99.90
5457;DHT22;2751;49.802;9.944;2023-02-15T07:21:20;1.00;1.00
5457;DHT22;2751;49.802;9.944;2023-02-15T07:23:49;1.40;1.00
5457;DHT22;2751;49.802;9.944;2023-02-15T07:26:15;1.10;99.90
5457;DHT22;2751;49.802;9.944;2023-02-15T07:28:42;1.00;99.90
5457;DHT22;2751;49.802;9.944;2023-02-15T07:31:09;1.00;99.90
5457;DHT22;2751;49.802;9.944;2023-02-15T07:33:36;1.00;28.20
5457;DHT22;2751;49.802;9.944;2023-02-15T07:36:04;0.90;1.00
5457;DHT22;2751;49.802;9.944;2023-02-15T07:38:33;0.90;5.00
5457;DHT22;2751;49.802;9.944;2023-02-15T07:41:03;0.90;99.90
5457;DHT22;2751;49.802;9.944;2023-02-15T07:43:30;0.80;99.90
5457;DHT22;2751;49.802;9.944;2023-02-15T07:45:59;0.70;99.90
5457;DHT22;2751;49.802;9.944;2023-02-15T07:48:26;0.70;1.00
5457;DHT22;2751;49.802;9.944;2023-02-15T07:50:53;0.80;1.00
5457;DHT22;2751;49.802;9.944;2023-02-15T07:53:20;0.80;1.00
5457;DHT22;2751;49.802;9.944;2023-02-15T07:55:47;0.80;1.00
5457;DHT22;2751;49.802;9.944;2023-02-15T07:58:15;0.90;99.90
5457;DHT22;2751;49.802;9.944;2023-02-15T08:00:42;1.30;81.90
5457;DHT22;2751;49.802;9.944;2023-02-15T08:03:24;1.00;1.00
5457;DHT22;2751;49.802;9.944;2023-02-15T08:05:56;1.10;1.00
5457;DHT22;2751;49.802;9.944;2023-02-15T08:08:23;1.10;1.00
5457;DHT22;2751;49.802;9.944;2023-02-15T08:11:00;1.20;99.90
5457;DHT22;2751;49.802;9.944;2023-02-15T08:13:48;1.20;91.10
5457;DHT22;2751;49.802;9.944;2023-02-15T08:16:22;1.40;36.80
5457;DHT22;2751;49.802;9.944;2023-02-15T08:18:49;1.20;1.00
5457;DHT22;2751;49.802;9.944;2023-02-15T08:21:16;1.00;99.90
5457;DHT22;2751;49.802;9.944;2023-02-15T08:23:43;1.20;99.90
5457;DHT22;2751;49.802;9.944;2023-02-15T08:26:10;1.20;99.90
5457;DHT22;2751;49.802;9.944;2023-02-15T08:28:37;1.10;1.00
5457;DHT22;2751;49.802;9.944;2023-02-15T08:31:06;1.30;99.90
5457;DHT22;2751;49.802;9.944;2023-02-15T08:33:33;1.30;1.00
5457;DHT22;2751;49.802;9.944;2023-02-15T08:36:04;1.10;1.00
5457;DHT22;2751;49.802;9.944;2023-02-15T08:38:31;1.20;99.90
5457;DHT22;2751;49.802;9.944;2023-02-15T08:40:58;1.40;1.00
5457;DHT22;2751;49.802;9.944;2023-02-15T08:43:34;1.50;99.90
5457;DHT22;2751;49.802;9.944;2023-02-15T08:46:01;1.50;1.00
5457;DHT22;2751;49.802;9.944;2023-02-15T08:48:29;1.60;99.90
5457;DHT22;2751;49.802;9.944;2023-02-15T08:50:56;1.70;99.90
5457;DHT22;2751;49.802;9.944;2023-02-15T08:53:23;1.70;1.00
5457;DHT22;2751;49.802;9.944;2023-02-15T08:55:55;1.60;1.00
5457;DHT22;2751;49.802;9.944;2023-02-15T08:58:22;1.60;1.00
5457;DHT22;2751;49.802;9.944;2023-02-15T09:00:49;1.50;1.00
5457;DHT22;2751;49.802;9.944;2023-02-15T09:03:16;1.50;1.00
5457;DHT22;2751;49.802;9.944;2023-02-15T09:05:44;2.00;1.00
5457;DHT22;2751;49.802;9.944;2023-02-15T09:08:11;1.70;1.00
5457;DHT22;2751;49.802;9.944;2023-02-15T09:10:38;1.80;99.90
5457;DHT22;2751;49.802;9.944;2023-02-15T09:13:05;1.90;99.90
5457;DHT22;2751;49.802;9.944;2023-02-15T09:15:32;1.80;99.90
5457;DHT22;2751;49.802;9.944;2023-02-15T09:17:59;1.90;99.90
5457;DHT22;2751;49.802;9.944;2023-02-15T09:20:29;1.90;99.90
5457;DHT22;2751;49.802;9.944;2023-02-15T09:22:58;1.90;99.90
5457;DHT22;2751;49.802;9.944;2023-02-15T09:25:25;2.20;99.90
5457;DHT22;2751;49.802;9.944;2023-02-15T09:27:52;1.80;99.90
5457;DHT22;2751;49.802;9.944;2023-02-15T09:30:19;1.80;1.00
5457;DHT22;2751;49.802;9.944;2023-02-15T09:32:47;1.80;99.90
5457;DHT22;2751;49.802;9.944;2023-02-15T09:35:14;2.30;1.00
5457;DHT22;2751;49.802;9.944;2023-02-15T09:37:41;2.00;99.90
5457;DHT22;2751;49.802;9.944;2023-02-15T09:40:12;1.90;99.90
5457;DHT22;2751;49.802;9.944;2023-02-15T09:43:06;1.90;99.90
5457;DHT22;2751;49.802;9.944;2023-02-15T09:48:38;1.80;1.00
5457;DHT22;2751;49.802;9.944;2023-02-15T09:51:27;1.80;1.00
5457;DHT22;2751;49.802;9.944;2023-02-15T09:54:04;1.80;1.00
5457;DHT22;2751;49.802;9.944;2023-02-15T09:56:40;1.70;99.90
5457;DHT22;2751;49.802;9.944;2023-02-15T09:59:14;1.70;99.90
5457;DHT22;2751;49.802;9.944;2023-02-15T10:01:50;1.80;1.00
5457;DHT22;2751;49.802;9.944;2023-02-15T10:04:32;1.90;99.90
5457;DHT22;2751;49.802;9.944;2023-02-15T10:07:11;1.80;99.90
5457;DHT22;2751;49.802;9.944;2023-02-15T10:09:48;1.80;99.90
5457;DHT22;2751;49.802;9.944;2023-02-15T10:12:37;1.80;99.90
5457;DHT22;2751;49.802;9.944;2023-02-15T10:15:27;1.90;99.90
5457;DHT22;2751;49.802;9.944;2023-02-15T10:18:21;2.30;99.90
5457;DHT22;2751;49.802;9.944;2023-02-15T10:20:56;2.10;99.90
5457;DHT22;2751;49.802;9.944;2023-02-15T10:23:41;2.20;99.90
5457;DHT22;2751;49.802;9.944;2023-02-15T10:26:17;2.30;99.90
5457;DHT22;2751;49.802;9.944;2023-02-15T10:28:49;2.10;1.00
5457;DHT22;2751;49.802;9.944;2023-02-15T10:31:23;2.00;1.00
5457;DHT22;2751;49.802;9.944;2023-02-15T10:34:02;2.00;82.90
5457;DHT22;2751;49.802;9.944;2023-02-15T10:36:43;2.00;99.90
5457;DHT22;2751;49.802;9.944;2023-02-15T10:39:21;2.10;99.90
5457;DHT22;2751;49.802;9.944;2023-02-15T10:41:55;2.20;99.90
5457;DHT22;2751;49.802;9.944;2023-02-15T10:44:40;2.10;1.00
5457;DHT22;2751;49.802;9.944;2023-02-15T10:47:30;2.00;1.00
5457;DHT22;2751;49.802;9.944;2023-02-15T10:50:13;1.90;99.90
5457;DHT22;2751;49.802;9.944;2023-02-15T10:52:55;1.80;55.10
5457;DHT22;2751;49.802;9.944;2023-02-15T10:55:34;1.80;99.90
5457;DHT22;2751;49.802;9.944;2023-02-15T10:58:10;2.00;99.90
5457;DHT22;2751;49.802;9.944;2023-02-15T11:00:45;2.20;81.90
5457;DHT22;2751;49.802;9.944;2023-02-15T11:03:34;2.70;1.00
5457;DHT22;2751;49.802;9.944;2023-02-15T11:06:05;2.30;1.00
5457;DHT22;2751;49.802;9.944;2023-02-15T11:08:38;2.50;1.00
5457;DHT22;2751;49.802;9.944;2023-02-15T11:11:07;2.40;1.00
5457;DHT22;2751;49.802;9.944;2023-02-15T11:13:39;2.70;1.00
5457;DHT22;2751;49.802;9.944;2023-02-15T11:16:12;2.50;1.00
5457;DHT22;2751;49.802;9.944;2023-02-15T11:18:42;2.70;1.00
5457;DHT22;2751;49.802;9.944;2023-02-15T11:21:13;2.70;99.90
5457;DHT22;2751;49.802;9.944;2023-02-15T11:23:43;2.80;99.90
5457;DHT22;2751;49.802;9.944;2023-02-15T11:26:14;3.10;99.90
5457;DHT22;2751;49.802;9.944;2023-02-15T11:28:47;2.70;99.90
5457;DHT22;2751;49.802;9.944;2023-02-15T11:31:20;2.80;99.90
5457;DHT22;2751;49.802;9.944;2023-02-15T11:33:51;2.70;99.90
5457;DHT22;2751;49.802;9.944;2023-02-15T11:36:22;2.60;99.90
5457;DHT22;2751;49.802;9.944;2023-02-15T11:38:56;2.60;99.90
5457;DHT22;2751;49.802;9.944;2023-02-15T11:41:28;2.70;99.90
5457;DHT22;2751;49.802;9.944;2023-02-15T11:43:59;3.10;99.90
5457;DHT22;2751;49.802;9.944;2023-02-15T11:46:31;2.90;99.90
5457;DHT22;2751;49.802;9.944;2023-02-15T11:48:58;3.10;99.90
5457;DHT22;2751;49.802;9.944;2023-02-15T11:51:25;3.10;99.90
5457;DHT22;2751;49.802;9.944;2023-02-15T11:53:54;3.30;99.90
5457;DHT22;2751;49.802;9.944;2023-02-15T11:56:23;3.40;99.90
5457;DHT22;2751;49.802;9.944;2023-02-15T11:58:54;3.50;99.90
5457;DHT22;2751;49.802;9.944;2023-02-15T12:01:27;3.60;99.90
5457;DHT22;2751;49.802;9.944;2023-02-15T12:04:01;3.50;99.90
5457;DHT22;2751;49.802;9.944;2023-02-15T12:06:33;3.60;99.90
5457;DHT22;2751;49.802;9.944;2023-02-15T12:09:05;3.60;99.90
5457;DHT22;2751;49.802;9.944;2023-02-15T12:11:38;3.70;99.90
5457;DHT22;2751;49.802;9.944;2023-02-15T12:14:06;3.80;99.90
5457;DHT22;2751;49.802;9.944;2023-02-15T12:16:41;4.00;99.90
5457;DHT22;2751;49.802;9.944;2023-02-15T12:19:25;3.80;99.90
5457;DHT22;2751;49.802;9.944;2023-02-15T12:21:54;3.90;99.90
5457;DHT22;2751;49.802;9.944;2023-02-15T12:24:23;3.80;99.90
5457;DHT22;2751;49.802;9.944;2023-02-15T12:27:00;3.90;99.90
5457;DHT22;2751;49.802;9.944;2023-02-15T12:29:30;4.00;99.90
5457;DHT22;2751;49.802;9.944;2023-02-15T12:31:57;4.00;99.90
5457;DHT22;2751;49.802;9.944;2023-02-15T12:34:29;3.80;99.90
5457;DHT22;2751;49.802;9.944;2023-02-15T12:37:00;3.80;99.90
5457;DHT22;2751;49.802;9.944;2023-02-15T12:39:29;3.60;99.90
5457;DHT22;2751;49.802;9.944;2023-02-15T12:42:00;3.70;99.90
5457;DHT22;2751;49.802;9.944;2023-02-15T12:44:29;4.00;99.90
5457;DHT22;2751;49.802;9.944;2023-02-15T12:46:59;3.80;99.90
5457;DHT22;2751;49.802;9.944;2023-02-15T12:49:28;4.00;99.90
5457;DHT22;2751;49.802;9.944;2023-02-15T12:51:57;4.00;99.90
5457;DHT22;2751;49.802;9.944;2023-02-15T12:54:36;4.00;99.90
5457;DHT22;2751;49.802;9.944;2023-02-15T12:57:24;3.90;99.90
5457;DHT22;2751;49.802;9.944;2023-02-15T12:59:54;4.00;99.90
5457;DHT22;2751;49.802;9.944;2023-02-15T13:02:25;3.80;99.90
5457;DHT22;2751;49.802;9.944;2023-02-15T13:04:55;3.70;99.90
5457;DHT22;2751;49.802;9.944;2023-02-15T13:07:25;3.80;99.90
5457;DHT22;2751;49.802;9.944;2023-02-15T13:09:57;3.80;98.90
5457;DHT22;2751;49.802;9.944;2023-02-15T13:12:26;3.80;99.90
5457;DHT22;2751;49.802;9.944;2023-02-15T13:14:56;3.90;99.90
5457;DHT22;2751;49.802;9.944;2023-02-15T13:17:26;4.10;99.90
5457;DHT22;2751;49.802;9.944;2023-02-15T13:19:59;4.10;88.70
5457;DHT22;2751;49.802;9.944;2023-02-15T13:22:32;3.70;82.70
5457;DHT22;2751;49.802;9.944;2023-02-15T13:25:04;3.90;85.20
5457;DHT22;2751;49.802;9.944;2023-02-15T13:27:38;3.80;77.90
5457;DHT22;2751;49.802;9.944;2023-02-15T13:30:18;4.10;93.90
5457;DHT22;2751;49.802;9.944;2023-02-15T13:32:48;4.20;56.90
5457;DHT22;2751;49.802;9.944;2023-02-15T13:35:18;4.30;71.70
5457;DHT22;2751;49.802;9.944;2023-02-15T13:37:55;4.40;53.40
5457;DHT22;2751;49.802;9.944;2023-02-15T13:40:32;4.40;52.20
5457;DHT22;2751;49.802;9.944;2023-02-15T13:43:02;4.40;43.40
5457;DHT22;2751;49.802;9.944;2023-02-15T13:45:39;4.40;43.20
5457;DHT22;2751;49.802;9.944;2023-02-15T13:48:16;4.40;36.80
5457;DHT22;2751;49.802;9.944;2023-02-15T13:51:00;4.40;38.40
5457;DHT22;2751;49.802;9.944;2023-02-15T13:54:03;4.30;32.80
5457;DHT22;2751;49.802;9.944;2023-02-15T13:56:41;4.10;42.70
5457;DHT22;2751;49.802;9.944;2023-02-15T13:59:31;4.30;36.40
5457;DHT22;2751;49.802;9.944;2023-02-15T14:02:28;4.40;45.20
5457;DHT22;2751;49.802;9.944;2023-02-15T14:05:10;4.50;40.30
5457;DHT22;2751;49.802;9.944;2023-02-15T14:07:49;4.60;43.40
5457;DHT22;2751;49.802;9.944;2023-02-15T14:10:36;4.70;35.10
5457;DHT22;2751;49.802;9.944;2023-02-15T14:16:03;4.60;30.70
5457;DHT22;2751;49.802;9.944;2023-02-15T14:18:37;4.90;39.20
5457;DHT22;2751;49.802;9.944;2023-02-15T14:21:10;4.80;39.20
5457;DHT22;2751;49.802;9.944;2023-02-15T14:23:55;4.70;27.60
5457;DHT22;2751;49.802;9.944;2023-02-15T14:26:33;4.50;22.30
5457;DHT22;2751;49.802;9.944;2023-02-15T14:29:13;4.70;30.80
5457;DHT22;2751;49.802;9.944;2023-02-15T14:31:45;5.00;28.70
5457;DHT22;2751;49.802;9.944;2023-02-15T14:34:19;4.80;29.20
5457;DHT22;2751;49.802;9.944;2023-02-15T14:36:48;4.60;28.50
5457;DHT22;2751;49.802;9.944;2023-02-15T14:39:26;4.50;43.80
5457;DHT22;2751;49.802;9.944;2023-02-15T14:42:16;4.50;54.80
5457;DHT22;2751;49.802;9.944;2023-02-15T14:44:48;4.30;43.00
5457;DHT22;2751;49.802;9.944;2023-02-15T14:47:20;4.20;73.30
5457;DHT22;2751;49.802;9.944;2023-02-15T14:49:48;4.10;68.30
5457;DHT22;2751;49.802;9.944;2023-02-15T14:52:15;4.10;79.70
5457;DHT22;2751;49.802;9.944;2023-02-15T14:55:10;4.20;66.40
5457;DHT22;2751;49.802;9.944;2023-02-15T14:57:58;4.30;62.70
5457;DHT22;2751;49.802;9.944;2023-02-15T15:00:36;4.30;61.50
5457;DHT22;2751;49.802;9.944;2023-02-15T15:03:11;4.40;62.40
5457;DHT22;2751;49.802;9.944;2023-02-15T15:05:48;4.40;59.30
5457;DHT22;2751;49.802;9.944;2023-02-15T15:08:25;4.40;62.20
5457;DHT22;2751;49.802;9.944;2023-02-15T15:10:54;4.50;65.00
5457;DHT22;2751;49.802;9.944;2023-02-15T15:13:51;4.60;68.60
5457;DHT22;2751;49.802;9.944;2023-02-15T15:16:31;4.50;93.00
5457;DHT22;2751;49.802;9.944;2023-02-15T15:19:12;4.80;90.80
5457;DHT22;2751;49.802;9.944;2023-02-15T15:22:03;4.50;66.90
5457;DHT22;2751;49.802;9.944;2023-02-15T15:24:50;4.50;67.90
5457;DHT22;2751;49.802;9.944;2023-02-15T15:27:45;4.40;70.30
5457;DHT22;2751;49.802;9.944;2023-02-15T15:43:31;4.30;96.60
5457;DHT22;2751;49.802;9.944;2023-02-15T15:46:18;4.30;97.60
5457;DHT22;2751;49.802;9.944;2023-02-15T15:48:52;4.20;99.90
5457;DHT22;2751;49.802;9.944;2023-02-15T15:51:21;4.20;99.90
5457;DHT22;2751;49.802;9.944;2023-02-15T15:53:53;4.10;99.90
5457;DHT22;2751;49.802;9.944;2023-02-15T15:56:22;4.40;99.90
5457;DHT22;2751;49.802;9.944;2023-02-15T15:58:56;4.00;99.90
5457;DHT22;2751;49.802;9.944;2023-02-15T16:01:27;3.90;99.90
5457;DHT22;2751;49.802;9.944;2023-02-15T16:03:57;3.90;99.90
5457;DHT22;2751;49.802;9.944;2023-02-15T16:06:36;4.10;99.90
5457;DHT22;2751;49.802;9.944;2023-02-15T16:09:15;3.60;99.90
5457;DHT22;2751;49.802;9.944;2023-02-15T16:11:43;3.50;99.90
5457;DHT22;2751;49.802;9.944;2023-02-15T16:14:24;3.40;99.90
5457;DHT22;2751;49.802;9.944;2023-02-15T16:16:54;3.40;99.90
5457;DHT22;2751;49.802;9.944;2023-02-15T16:19:26;3.30;99.90
5457;DHT22;2751;49.802;9.944;2023-02-15T16:21:54;3.70;1.00
5457;DHT22;2751;49.802;9.944;2023-02-15T16:24:46;3.20;1.00
5457;DHT22;2751;49.802;9.944;2023-02-15T16:30:25;3.00;1.00
5457;DHT22;2751;49.802;9.944;2023-02-15T16:32:54;2.90;1.00
5457;DHT22;2751;49.802;9.944;2023-02-15T16:35:21;2.70;67.90
5457;DHT22;2751;49.802;9.944;2023-02-15T16:37:49;2.70;99.90
5457;DHT22;2751;49.802;9.944;2023-02-15T16:40:45;3.00;99.90
5457;DHT22;2751;49.802;9.944;2023-02-15T16:43:20;2.60;99.90
5457;DHT22;2751;49.802;9.944;2023-02-15T16:45:50;2.30;1.00
5457;DHT22;2751;49.802;9.944;2023-02-15T16:48:21;2.50;1.00
5457;DHT22;2751;49.802;9.944;2023-02-15T16:50:51;2.80;1.00
5457;DHT22;2751;49.802;9.944;2023-02-15T16:53:23;2.30;1.00
5457;DHT22;2751;49.802;9.944;2023-02-15T16:55:52;2.30;99.90
5457;DHT22;2751;49.802;9.944;2023-02-15T16:58:26;2.20;99.90
5457;DHT22;2751;49.802;9.944;2023-02-15T17:00:57;2.10;99.90
5457;DHT22;2751;49.802;9.944;2023-02-15T17:03:25;2.50;1.00
5457;DHT22;2751;49.802;9.944;2023-02-15T17:05:54;2.00;1.00
5457;DHT22;2751;49.802;9.944;2023-02-15T17:08:29;2.00;1.00
5457;DHT22;2751;49.802;9.944;2023-02-15T17:11:13;2.00;99.90
5457;DHT22;2751;49.802;9.944;2023-02-15T17:14:09;1.90;91.10
5457;DHT22;2751;49.802;9.944;2023-02-15T17:16:34;2.20;99.90
5457;DHT22;2751;49.802;9.944;2023-02-15T17:19:07;2.10;1.00
5457;DHT22;2751;49.802;9.944;2023-02-15T17:21:37;1.80;1.00
5457;DHT22;2751;49.802;9.944;2023-02-15T17:24:05;1.70;1.00
5457;DHT22;2751;49.802;9.944;2023-02-15T17:26:34;1.70;1.00
5457;DHT22;2751;49.802;9.944;2023-02-15T17:29:16;1.70;88.70